EPRZ/RZE METAR and TAF weather

Enter ICAO airport designator
Station Type Date Time Source
EPRZ METAR 2020/07/03 13:30 UTC NOAA

EPRZ 031330Z 01009KT 9999 FEW037CB 23/18 Q1012


Station Type Date Time Source
EPRZ Decoded METAR 2020/07/03 13:30 UTC NOAA

Rzeszow-Jasionka, Poland (EPRZ) 50-06N 022-03E 202M
Jul 03, 2020 - 09:30 AM EDT / 2020.07.03 1330 UTC
Wind: from the N (010 degrees) at 10 MPH (9 KT):0
Visibility: greater than 7 mile(s):0
Sky conditions: mostly clear
Weather: Cumulonimbus clouds observed
Temperature: 73 F (23 C)
Dew Point: 64 F (18 C)
Relative Humidity: 73%
Pressure (altimeter): 29.88 in. Hg (1012 hPa)
ob: EPRZ 031330Z 01009KT 9999 FEW037CB 23/18 Q1012
cycle: 13

Station Type Date Time Source
EPRZ TAF 2020/07/03 12:34 UTC NOAA

TAF EPRZ 031130Z 0312/0412 30007KT 9999 SCT030
TEMPO 0312/0320 VRB15G35KT 3000 TSRA BKN012 BKN030CB PROB30
TEMPO 0312/0318 1500 TSRAGR BKN008 BKN012CB

Example: see airport list